San Leandro, California
Current Conditions -  °F | °C
As of 6:53 PM on Friday 21 Nov 2014 (Local Time) from KOAK Reporting Station
Overcast Overcast  
Wind Chill: 59°   Ceiling: 5500
Heat Index: 59°   Visibility: 10mi
Dew Point: 51°   Wind: 0mph
Humidity: 75%   Direction: NA
Pressure: 30.11"   Gusts: NA
Location:  37.73°N, 122.15°W
Report Text: KOAK 220253Z 00000KT 10SM BKN055 OVC070 15/11 A3011 RMK AO2 SLP197 T01500106 53006
Loading
Personal Weather Stations






























Interactive Weather Map New forecast layout! Learn more

10-Day Weather Forecast

Advertisements
Track Severe Weather on mobile